• Join FlightAware (Why Join?)
  • Login
  • US Flag 
01:54PM EDT


 

Airport Tracker/Info


-or-


 

Live Flight TrackerFlight Track Log ✈ AAL1813 ✈ 26-Apr-2012 ✈ KLGA - KMIA

Flight Track Log - Related Links

Times and Time Zones

All times are in EDT time to prevent confusion due to time zone crossing. See the AAL1813 flight status page for this flight to view local times or setup timezone preferences in your user account.

Time Position Orientation Groundspeed Altitude Reporting Facility
EDT Latitude Longitude Course Direction KTS MPH feet Rate Location/Type
11:02AM 40.7516 -73.8767 93° East  Level FlightAware Approximate
11:02AM 40.7500 -73.8333 180° South 174 200 2,200  Level New York TRACON
11:04AM 40.6833 -73.8333 207° Southwest 209 241 5,500 3,000 Climbing New York TRACON
11:05AM 40.6333 -73.8667 217° Southwest 245 282 8,500 2,940 Climbing New York TRACON
11:05AM 40.5833 -73.9167 210° Southwest 269 310 11,200 2,580 Climbing New York TRACON
11:06AM 40.5167 -73.9667 207° Southwest 292 336 13,500 2,040 Climbing New York TRACON
11:08AM 40.4167 -74.0333 205° Southwest 358 412 15,500 1,620 Climbing New York TRACON
11:09AM 40.3211 -74.0922 202° Southwest 396 456 17,100 780 Climbing New York Center
11:10AM 40.2303 -74.1394 202° Southwest 380 437 17,100 1,020 Level New York Center
11:12AM 40.0081 -74.2561 214° Southwest 410 472 20,400 1,800 Climbing Washington Center
11:13AM 39.9153 -74.3389 217° Southwest 410 472 22,800 2,100 Climbing Washington Center
11:14AM 39.8244 -74.4272 225° Southwest 410 472 24,600 1,800 Climbing Washington Center
11:15AM 39.7400 -74.5364 226° Southwest 422 486 26,500 1,740 Climbing Washington Center
11:16AM 39.6578 -74.6456 225° Southwest 427 491 28,200 1,380 Climbing Washington Center
11:17AM 39.5814 -74.7433 225° Southwest 432 497 29,300 1,560 Climbing Washington Center
11:18AM 39.4944 -74.8575 225° Southwest 432 497 31,400 1,680 Climbing Washington Center
11:19AM 39.4119 -74.9658 223° Southwest 432 497 32,700 1,500 Climbing Washington Center
11:20AM 39.3289 -75.0656 223° Southwest 427 491 34,500 1,740 Climbing Washington Center
11:21AM 39.2481 -75.1628 222° Southwest 420 483 36,300 1,560 Climbing Washington Center
11:22AM 39.1650 -75.2597 213° Southwest 415 478 37,700 840 Climbing Washington Center
11:23AM 39.0736 -75.3350 192° South 404 465 38,000 120 Climbing Washington Center
11:24AM 38.9569 -75.3675 188° South 402 463 38,000  Level Washington Center
11:25AM 38.8381 -75.3892 193° South 419 482 38,000  Level Washington Center
11:26AM 38.7233 -75.4242 191° South 425 489 38,000  Level Washington Center
11:27AM 38.6047 -75.4536 189° South 430 495 38,000  Level Washington Center
11:28AM 38.4858 -75.4775 189° South 430 495 38,000  Level Washington Center
11:29AM 38.3669 -75.5017 201° Southwest 430 495 38,000  Level Washington Center
11:30AM 38.2481 -75.5600 203° Southwest 425 489 38,000  Level Washington Center
11:31AM 38.1419 -75.6181 202° Southwest 425 489 38,000  Level Washington Center
11:32AM 38.0564 -75.6631 206° Southwest 425 489 38,000  Level Washington Center
11:33AM 37.9333 -75.7392 203° Southwest 417 480 38,000  Level Washington Center
11:34AM 37.8289 -75.7942 203° Southwest 417 480 38,000  Level Washington Center
11:35AM 37.7203 -75.8517 202° Southwest 417 480 38,000  Level Washington Center
11:36AM 37.6139 -75.9064 203° Southwest 417 480 38,000  Level Washington Center
11:37AM 37.5072 -75.9636 203° Southwest 417 480 38,000  Level Washington Center
11:38AM 37.4008 -76.0206 203° Southwest 417 480 38,000  Level Washington Center
11:39AM 37.3025 -76.0722 203° Southwest 417 480 38,000  Level Washington Center
11:40AM 37.1939 -76.1289 201° Southwest 417 480 38,000  Level Washington Center
11:41AM 37.0725 -76.1881 202° Southwest 417 480 38,000  Level Washington Center
11:42AM 36.9636 -76.2444 203° Southwest 422 486 38,000  Level Washington Center
11:43AM 36.8550 -76.3031 201° Southwest 422 486 38,000  Level Washington Center
11:44AM 36.7442 -76.3567 205° Southwest 422 486 38,000  Level Washington Center
11:45AM 36.6478 -76.4125 201° Southwest 427 491 38,000  Level Washington Center
11:46AM 36.5367 -76.4658 203° Southwest 427 491 38,000  Level Washington Center
11:47AM 36.4278 -76.5239 202° Southwest 432 497 38,000  Level Washington Center
11:48AM 36.3189 -76.5794 201° Southwest 432 497 38,000  Level Washington Center
11:49AM 36.2078 -76.6319 202° Southwest 432 497 38,000  Level Washington Center
11:50AM 36.0989 -76.6872 202° Southwest 432 497 38,000  Level Washington Center
11:51AM 35.9900 -76.7422 202° Southwest 432 497 38,000  Level Washington Center
11:52AM 35.8789 -76.7969 203° Southwest 432 497 38,000  Level Washington Center
11:53AM 35.7717 -76.8542 201° Southwest 432 497 38,000  Level Washington Center
11:54AM 35.6628 -76.9061 203° Southwest 426 490 38,000  Level Washington Center
11:55AM 35.5597 -76.9606 202° Southwest 410 472 38,000  Level Washington Center
11:56AM 35.4508 -77.0147 202° Southwest 418 481 38,000  Level Washington Center
11:57AM 35.3289 -77.0764 202° Southwest 428 493 38,000  Level Washington Center
11:58AM 35.2136 -77.1328 201° Southwest 433 498 38,000  Level Washington Center
11:59AM 35.1000 -77.1864 203° Southwest 438 504 38,000  Level Washington Center
12:00PM 34.9867 -77.2450 202° Southwest 438 504 38,000  Level Washington Center
12:01PM 34.8731 -77.3008 205° Southwest 438 504 38,000  Level Washington Center
12:02PM 34.7722 -77.3569 202° Southwest 448 516 38,000  Level Washington Center
12:03PM 34.6586 -77.4125 200° South 443 510 38,000  Level Washington Center
12:04PM 34.5431 -77.4631 194° South 443 510 38,000  Level Washington Center
12:05PM 34.4217 -77.5003 194° South 443 510 38,000  Level Washington Center
12:07PM 34.1175 -77.5953 195° South 447 514 38,000  Level Jacksonville Center
12:08PM 33.9961 -77.6353 194° South 453 521 38,000  Level Jacksonville Center
12:09PM 33.8744 -77.6725 195° South 456 525 38,000  Level Jacksonville Center
12:10PM 33.7550 -77.7122 196° South 451 519 38,000  Level Jacksonville Center
12:11PM 33.6317 -77.7542 195° South 451 519 38,000  Level Jacksonville Center
12:12PM 33.5122 -77.7936 195° South 451 519 38,000  Level Jacksonville Center
12:13PM 33.3947 -77.8303 195° South 451 519 38,000  Level Jacksonville Center
12:14PM 33.2753 -77.8692 195° South 451 519 38,000  Level Jacksonville Center
12:15PM 33.1558 -77.9083 195° South 445 512 38,000  Level Jacksonville Center
12:16PM 33.0342 -77.9472 195° South 450 518 38,000  Level Jacksonville Center
12:17PM 32.9186 -77.9833 194° South 450 518 38,000  Level Jacksonville Center
12:18PM 32.8031 -78.0167 195° South 450 518 38,000  Level Jacksonville Center
12:19PM 32.6856 -78.0550 195° South 450 518 38,000  Level Jacksonville Center
12:20PM 32.5722 -78.0908 194° South 440 506 38,000  Level Jacksonville Center
12:21PM 32.4547 -78.1267 195° South 435 501 38,000  Level Jacksonville Center
12:22PM 32.3392 -78.1644 194° South 424 488 38,000  Level Jacksonville Center
12:23PM 32.2217 -78.2000 195° South 435 501 38,000  Level Jacksonville Center
12:24PM 32.1061 -78.2378 192° South 435 501 38,000  Level Jacksonville Center
12:25PM 32.0089 -78.2625 196° South 424 488 38,000  Level Jacksonville Center
12:26PM 31.8914 -78.3025 194° South 424 488 38,000  Level Jacksonville Center
12:27PM 31.7797 -78.3350 196° South 429 494 38,000  Level Jacksonville Center
12:28PM 31.6603 -78.3750 195° South 434 499 38,000  Level Jacksonville Center
12:29PM 31.5486 -78.4097 195° South 434 499 38,000  Level Jacksonville Center
12:30PM 31.4311 -78.4469 194° South 434 499 38,000  Level Jacksonville Center
12:31PM 31.3194 -78.4792 196° South 429 494 38,000  Level Jacksonville Center
12:32PM 31.2017 -78.5186 196° South 436 502 38,000  Level Jacksonville Center
12:33PM 31.0842 -78.5581 193° South 431 496 38,000  Level Jacksonville Center
12:34PM 30.9539 -78.5931 196° South 451 519 38,000  Level Jacksonville Center
12:35PM 30.8403 -78.6319 195° South 451 519 38,000  Level Jacksonville Center
12:36PM 30.7225 -78.6689 190° South 446 513 38,000  Level Jacksonville Center
12:39PM 30.3867 -78.7406 189° South 450 518 38,000  Level Miami Center
12:40PM 30.2822 -78.7606 188° South 450 518 38,000  Level Miami Center
12:41PM 30.1547 -78.7822 188° South 451 519 38,000  Level Miami Center
12:42PM 30.0358 -78.8017 191° South 446 513 38,000  Level Miami Center
12:43PM 29.9250 -78.8258 187° South 435 501 38,000  Level Miami Center
12:44PM 29.7994 -78.8428 191° South 435 501 38,000  Level Miami Center
12:45PM 29.6844 -78.8694 192° South 441 507 38,000  Level Miami Center
12:46PM 29.5653 -78.8981 190° South 441 507 38,000  Level Miami Center
12:47PM 29.4439 -78.9219 191° South 434 499 38,000  Level Miami Center
12:48PM 29.3267 -78.9483 192° South 434 499 38,000  Level Miami Center
12:49PM 29.2117 -78.9772 190° South 427 491 38,000  Level Miami Center
12:50PM 29.0922 -79.0011 190° South 432 497 38,000  Level Miami Center
12:51PM 28.9708 -79.0247 191° South 432 497 38,000 -600 Level Miami Center
12:52PM 28.8494 -79.0508 189° South 437 503 36,900 -1,200 Descending Miami Center
12:53PM 28.7261 -79.0719 192° South 437 503 35,700 -1,200 Descending Miami Center
12:54PM 28.6067 -79.1006 190° South 437 503 34,600 -900 Descending Miami Center
12:55PM 28.4853 -79.1239 192° South 442 509 34,000 -300 Descending Miami Center
12:56PM 28.3678 -79.1522 190° South 448 516 34,000  Level Miami Center
12:57PM 28.2444 -79.1781 190° South 448 516 34,000  Level Miami Center
12:58PM 28.1228 -79.2014 191° South 448 516 34,000  Level Miami Center
12:59PM 28.0033 -79.2272 191° South 448 516 34,000  Level Miami Center
01:00PM 27.8819 -79.2528 190° South 448 516 34,000  Level Miami Center
01:01PM 27.7519 -79.2783 191° South 441 507 34,000  Level Miami Center
01:02PM 27.6325 -79.3039 189° South 447 514 34,000 -300 Level Miami Center
01:03PM 27.5092 -79.3269 192° South 447 514 33,400 -1,920 Descending Miami Center
01:04PM 27.3981 -79.3528 189° South 453 521 30,200 -3,300 Descending Miami Center
01:05PM 27.2703 -79.3758 191° South 461 531 26,800 -3,060 Descending Miami Center
01:06PM 27.1358 -79.4056 195° South 462 532 24,100 -1,440 Descending Miami Center
01:07PM 27.0142 -79.4425 196° South 450 518 24,000 -480 Descending Miami Center
01:09PM 26.7853 -79.5142 196° South 456 525 22,800 -1,320 Descending Miami Center
01:10PM 26.6675 -79.5511 204° Southwest 451 519 20,100 -2,640 Descending Miami Center
01:11PM 26.5622 -79.6044 229° Southwest 438 504 17,600 -2,040 Descending Miami Center
01:12PM 26.4828 -79.7069 237° Southwest 398 458 16,100 -840 Descending Miami Center
01:13PM 26.4353 -79.7894 236° Southwest 363 418 16,000 -60 Descending Miami Center
01:14PM 26.3814 -79.8783 225° Southwest 333 383 16,000 -420 Level Miami Center
01:14PM 26.3469 -79.9169 222° Southwest 309 356 15,400 -1,440 Descending Miami Center
01:15PM 26.2808 -79.9825 211° Southwest 310 357 13,800 -1,500 Descending Miami Center
01:16PM 26.2172 -80.0247 194° South 301 346 12,500 -1,380 Descending Miami Center
01:17PM 26.1858 -80.0333 193° South 293 337 11,800 -1,260 Descending Miami Center
01:17PM 26.1292 -80.0478 195° South 296 341 11,100 -540 Descending Miami Center
01:18PM 26.0514 -80.0714 197° South 293 337 11,000 -300 Descending Miami Center
01:19PM 25.9672 -80.0992 233° Southwest 293 337 10,600 -660 Descending Miami Center
01:20PM 25.9197 -80.1694 248° West 276 318 9,700 -840 Descending Miami Center
01:21PM 25.8950 -80.2381 256° West 264 304 9,000 -1,500 Descending Miami Center
01:22PM 25.8786 -80.3136 293° West 242 278 6,900 -1,980 Descending Miami Center
01:23PM 25.9042 -80.3814 280° West 239 275 5,000 -1,740 Descending Miami Center
01:24PM 25.9150 -80.4486 190° South 232 267 3,400 -1,140 Descending Miami Center
01:25PM 25.8753 -80.4567 190° South 174 200 2,900 -600 Descending Miami Center